sensor_id;sensor_type;location;lat;lon;timestamp;temperature;humidity
78536;SHT31;67829;51.968;5.684;2023-06-10T00:00:50;25.0;41.2
78536;SHT31;67829;51.968;5.684;2023-06-10T00:03:19;25.0;41.4
78536;SHT31;67829;51.968;5.684;2023-06-10T00:05:49;24.9;41.5
78536;SHT31;67829;51.968;5.684;2023-06-10T00:08:18;24.9;41.7
78536;SHT31;67829;51.968;5.684;2023-06-10T00:10:47;24.8;41.7
78536;SHT31;67829;51.968;5.684;2023-06-10T00:13:15;24.8;41.8
78536;SHT31;67829;51.968;5.684;2023-06-10T00:15:47;24.8;41.8
78536;SHT31;67829;51.968;5.684;2023-06-10T00:18:15;24.7;41.9
78536;SHT31;67829;51.968;5.684;2023-06-10T00:20:44;24.7;42.1
78536;SHT31;67829;51.968;5.684;2023-06-10T00:23:15;24.6;42.1
78536;SHT31;67829;51.968;5.684;2023-06-10T00:25:44;24.6;42.2
78536;SHT31;67829;51.968;5.684;2023-06-10T00:28:12;24.6;42.3
78536;SHT31;67829;51.968;5.684;2023-06-10T00:30:41;24.5;42.3
78536;SHT31;67829;51.968;5.684;2023-06-10T00:33:10;24.5;42.2
78536;SHT31;67829;51.968;5.684;2023-06-10T00:35:38;24.4;42.1
78536;SHT31;67829;51.968;5.684;2023-06-10T00:38:07;24.4;42.3
78536;SHT31;67829;51.968;5.684;2023-06-10T00:40:40;24.4;42.4
78536;SHT31;67829;51.968;5.684;2023-06-10T00:43:09;24.3;42.5
78536;SHT31;67829;51.968;5.684;2023-06-10T00:45:37;24.3;42.3
78536;SHT31;67829;51.968;5.684;2023-06-10T00:48:08;24.3;42.4
78536;SHT31;67829;51.968;5.684;2023-06-10T00:50:38;24.2;42.3
78536;SHT31;67829;51.968;5.684;2023-06-10T00:53:08;24.2;42.2
78536;SHT31;67829;51.968;5.684;2023-06-10T00:55:38;24.2;42.2
78536;SHT31;67829;51.968;5.684;2023-06-10T00:58:07;24.1;42.5
78536;SHT31;67829;51.968;5.684;2023-06-10T01:00:36;24.1;42.3
78536;SHT31;67829;51.968;5.684;2023-06-10T01:03:05;24.0;42.2
78536;SHT31;67829;51.968;5.684;2023-06-10T01:05:35;24.0;42.3
78536;SHT31;67829;51.968;5.684;2023-06-10T01:08:09;24.0;42.1
78536;SHT31;67829;51.968;5.684;2023-06-10T01:10:50;24.0;42.2
78536;SHT31;67829;51.968;5.684;2023-06-10T01:13:20;23.9;42.3
78536;SHT31;67829;51.968;5.684;2023-06-10T01:15:56;23.9;42.3
78536;SHT31;67829;51.968;5.684;2023-06-10T01:18:29;23.9;42.1
78536;SHT31;67829;51.968;5.684;2023-06-10T01:21:00;23.9;42.2
78536;SHT31;67829;51.968;5.684;2023-06-10T01:23:32;23.8;42.0
78536;SHT31;67829;51.968;5.684;2023-06-10T01:26:09;23.8;42.1
78536;SHT31;67829;51.968;5.684;2023-06-10T01:28:45;23.8;42.0
78536;SHT31;67829;51.968;5.684;2023-06-10T01:31:19;23.7;41.9
78536;SHT31;67829;51.968;5.684;2023-06-10T01:33:52;23.7;42.2
78536;SHT31;67829;51.968;5.684;2023-06-10T01:36:22;23.7;42.0
78536;SHT31;67829;51.968;5.684;2023-06-10T01:38:53;23.7;42.1
78536;SHT31;67829;51.968;5.684;2023-06-10T01:41:22;23.6;42.1
78536;SHT31;67829;51.968;5.684;2023-06-10T01:43:52;23.6;41.9
78536;SHT31;67829;51.968;5.684;2023-06-10T01:46:22;23.6;42.2
78536;SHT31;67829;51.968;5.684;2023-06-10T01:48:52;23.5;41.8
78536;SHT31;67829;51.968;5.684;2023-06-10T01:51:20;23.5;41.8
78536;SHT31;67829;51.968;5.684;2023-06-10T01:53:51;23.5;41.9
78536;SHT31;67829;51.968;5.684;2023-06-10T01:56:19;23.4;42.0
78536;SHT31;67829;51.968;5.684;2023-06-10T01:58:48;23.4;41.9
78536;SHT31;67829;51.968;5.684;2023-06-10T02:01:19;23.4;42.0
78536;SHT31;67829;51.968;5.684;2023-06-10T02:03:47;23.3;42.1
78536;SHT31;67829;51.968;5.684;2023-06-10T02:06:16;23.3;42.2
78536;SHT31;67829;51.968;5.684;2023-06-10T02:08:44;23.3;42.2
78536;SHT31;67829;51.968;5.684;2023-06-10T02:11:13;23.2;42.2
78536;SHT31;67829;51.968;5.684;2023-06-10T02:13:42;23.2;42.1
78536;SHT31;67829;51.968;5.684;2023-06-10T02:16:11;23.2;42.3
78536;SHT31;67829;51.968;5.684;2023-06-10T02:18:41;23.1;42.4
78536;SHT31;67829;51.968;5.684;2023-06-10T02:21:10;23.1;42.3
78536;SHT31;67829;51.968;5.684;2023-06-10T02:23:39;23.1;42.5
78536;SHT31;67829;51.968;5.684;2023-06-10T02:26:07;23.0;42.3
78536;SHT31;67829;51.968;5.684;2023-06-10T02:28:36;23.0;42.6
78536;SHT31;67829;51.968;5.684;2023-06-10T02:31:04;23.0;42.6
78536;SHT31;67829;51.968;5.684;2023-06-10T02:33:34;22.9;42.8
78536;SHT31;67829;51.968;5.684;2023-06-10T02:36:06;22.9;42.9
78536;SHT31;67829;51.968;5.684;2023-06-10T02:38:40;22.9;43.0
78536;SHT31;67829;51.968;5.684;2023-06-10T02:41:08;22.8;43.1
78536;SHT31;67829;51.968;5.684;2023-06-10T02:43:37;22.8;43.3
78536;SHT31;67829;51.968;5.684;2023-06-10T02:46:05;22.8;43.3
78536;SHT31;67829;51.968;5.684;2023-06-10T02:48:44;22.7;43.6
78536;SHT31;67829;51.968;5.684;2023-06-10T02:51:15;22.7;43.8
78536;SHT31;67829;51.968;5.684;2023-06-10T02:53:44;22.6;43.8
78536;SHT31;67829;51.968;5.684;2023-06-10T02:56:15;22.6;44.0
78536;SHT31;67829;51.968;5.684;2023-06-10T02:58:44;22.6;44.1
78536;SHT31;67829;51.968;5.684;2023-06-10T03:01:14;22.6;44.2
78536;SHT31;67829;51.968;5.684;2023-06-10T03:03:44;22.5;44.4
78536;SHT31;67829;51.968;5.684;2023-06-10T03:06:13;22.5;44.4
78536;SHT31;67829;51.968;5.684;2023-06-10T03:08:42;22.5;44.6
78536;SHT31;67829;51.968;5.684;2023-06-10T03:11:11;22.4;44.6
78536;SHT31;67829;51.968;5.684;2023-06-10T03:13:40;22.4;44.6
78536;SHT31;67829;51.968;5.684;2023-06-10T03:16:09;22.4;45.0
78536;SHT31;67829;51.968;5.684;2023-06-10T03:18:38;22.3;45.0
78536;SHT31;67829;51.968;5.684;2023-06-10T03:21:07;22.3;45.1
78536;SHT31;67829;51.968;5.684;2023-06-10T03:23:39;22.3;45.3
78536;SHT31;67829;51.968;5.684;2023-06-10T03:26:08;22.2;45.3
78536;SHT31;67829;51.968;5.684;2023-06-10T03:28:36;22.2;45.5
78536;SHT31;67829;51.968;5.684;2023-06-10T03:31:05;22.2;45.6
78536;SHT31;67829;51.968;5.684;2023-06-10T03:33:33;22.1;45.7
78536;SHT31;67829;51.968;5.684;2023-06-10T03:36:02;22.1;45.8
78536;SHT31;67829;51.968;5.684;2023-06-10T03:38:31;22.1;45.9
78536;SHT31;67829;51.968;5.684;2023-06-10T03:40:59;22.0;45.9
78536;SHT31;67829;51.968;5.684;2023-06-10T03:43:28;22.0;46.0
78536;SHT31;67829;51.968;5.684;2023-06-10T03:45:57;22.0;46.4
78536;SHT31;67829;51.968;5.684;2023-06-10T03:48:26;22.0;46.2
78536;SHT31;67829;51.968;5.684;2023-06-10T03:50:54;21.9;46.3
78536;SHT31;67829;51.968;5.684;2023-06-10T03:53:23;21.9;46.4
78536;SHT31;67829;51.968;5.684;2023-06-10T03:55:51;21.9;46.5
78536;SHT31;67829;51.968;5.684;2023-06-10T03:58:20;21.8;46.8
78536;SHT31;67829;51.968;5.684;2023-06-10T04:00:49;21.8;47.0
78536;SHT31;67829;51.968;5.684;2023-06-10T04:03:19;21.8;47.0
78536;SHT31;67829;51.968;5.684;2023-06-10T04:05:49;21.8;47.1
78536;SHT31;67829;51.968;5.684;2023-06-10T04:08:18;21.8;47.2
78536;SHT31;67829;51.968;5.684;2023-06-10T04:10:47;21.7;47.2
78536;SHT31;67829;51.968;5.684;2023-06-10T04:13:15;21.7;47.4
78536;SHT31;67829;51.968;5.684;2023-06-10T04:15:45;21.7;47.4
78536;SHT31;67829;51.968;5.684;2023-06-10T04:18:14;21.7;47.6
78536;SHT31;67829;51.968;5.684;2023-06-10T04:20:45;21.6;47.7
78536;SHT31;67829;51.968;5.684;2023-06-10T04:23:13;21.6;47.8
78536;SHT31;67829;51.968;5.684;2023-06-10T04:25:42;21.7;47.9
78536;SHT31;67829;51.968;5.684;2023-06-10T04:28:10;21.7;48.0
78536;SHT31;67829;51.968;5.684;2023-06-10T04:30:39;21.7;48.0
78536;SHT31;67829;51.968;5.684;2023-06-10T04:33:08;21.8;47.8
78536;SHT31;67829;51.968;5.684;2023-06-10T04:35:36;21.9;47.7
78536;SHT31;67829;51.968;5.684;2023-06-10T04:38:05;21.9;47.5
78536;SHT31;67829;51.968;5.684;2023-06-10T04:40:34;22.0;47.4
78536;SHT31;67829;51.968;5.684;2023-06-10T04:43:04;22.0;47.4
78536;SHT31;67829;51.968;5.684;2023-06-10T04:45:33;22.0;47.4
78536;SHT31;67829;51.968;5.684;2023-06-10T04:48:01;22.0;47.6
78536;SHT31;67829;51.968;5.684;2023-06-10T04:50:30;22.0;47.6
78536;SHT31;67829;51.968;5.684;2023-06-10T04:52:59;22.0;47.7
78536;SHT31;67829;51.968;5.684;2023-06-10T04:55:27;21.9;48.0
78536;SHT31;67829;51.968;5.684;2023-06-10T04:57:56;21.9;48.2
78536;SHT31;67829;51.968;5.684;2023-06-10T05:00:25;21.9;48.4
78536;SHT31;67829;51.968;5.684;2023-06-10T05:02:54;21.9;48.4
78536;SHT31;67829;51.968;5.684;2023-06-10T05:05:23;21.9;48.5
78536;SHT31;67829;51.968;5.684;2023-06-10T05:07:52;21.9;48.7
78536;SHT31;67829;51.968;5.684;2023-06-10T05:10:20;21.9;48.8
78536;SHT31;67829;51.968;5.684;2023-06-10T05:12:49;21.9;48.7
78536;SHT31;67829;51.968;5.684;2023-06-10T05:15:17;21.9;49.0
78536;SHT31;67829;51.968;5.684;2023-06-10T05:17:46;21.9;49.0
78536;SHT31;67829;51.968;5.684;2023-06-10T05:20:15;21.9;49.0
78536;SHT31;67829;51.968;5.684;2023-06-10T05:22:45;21.9;49.1
78536;SHT31;67829;51.968;5.684;2023-06-10T05:25:13;21.9;49.2
78536;SHT31;67829;51.968;5.684;2023-06-10T05:27:42;22.0;49.4
78536;SHT31;67829;51.968;5.684;2023-06-10T05:30:11;22.0;49.2
78536;SHT31;67829;51.968;5.684;2023-06-10T05:32:40;22.0;49.4
78536;SHT31;67829;51.968;5.684;2023-06-10T05:35:09;22.1;49.4
78536;SHT31;67829;51.968;5.684;2023-06-10T05:37:37;22.1;49.3
78536;SHT31;67829;51.968;5.684;2023-06-10T05:40:07;22.2;49.4
78536;SHT31;67829;51.968;5.684;2023-06-10T05:42:36;22.2;49.3
78536;SHT31;67829;51.968;5.684;2023-06-10T05:45:05;22.2;49.2
78536;SHT31;67829;51.968;5.684;2023-06-10T05:47:34;22.3;49.2
78536;SHT31;67829;51.968;5.684;2023-06-10T05:50:03;22.3;49.1
78536;SHT31;67829;51.968;5.684;2023-06-10T05:52:33;22.4;49.3
78536;SHT31;67829;51.968;5.684;2023-06-10T05:55:02;22.4;49.0
78536;SHT31;67829;51.968;5.684;2023-06-10T05:57:31;22.5;49.2
78536;SHT31;67829;51.968;5.684;2023-06-10T06:00:00;22.5;49.1
78536;SHT31;67829;51.968;5.684;2023-06-10T06:02:29;22.6;49.1
78536;SHT31;67829;51.968;5.684;2023-06-10T06:04:57;22.6;48.9
78536;SHT31;67829;51.968;5.684;2023-06-10T06:07:26;22.7;48.9
78536;SHT31;67829;51.968;5.684;2023-06-10T06:09:54;22.7;48.8
78536;SHT31;67829;51.968;5.684;2023-06-10T06:12:23;22.8;48.5
78536;SHT31;67829;51.968;5.684;2023-06-10T06:14:52;22.9;48.8
78536;SHT31;67829;51.968;5.684;2023-06-10T06:17:20;22.9;48.5
78536;SHT31;67829;51.968;5.684;2023-06-10T06:19:49;23.0;48.2
78536;SHT31;67829;51.968;5.684;2023-06-10T06:22:18;23.0;48.4
78536;SHT31;67829;51.968;5.684;2023-06-10T06:24:48;23.1;48.3
78536;SHT31;67829;51.968;5.684;2023-06-10T06:27:17;23.1;47.6
78536;SHT31;67829;51.968;5.684;2023-06-10T06:29:47;23.2;47.8
78536;SHT31;67829;51.968;5.684;2023-06-10T06:32:17;23.2;48.1
78536;SHT31;67829;51.968;5.684;2023-06-10T06:34:45;23.3;47.1
78536;SHT31;67829;51.968;5.684;2023-06-10T06:37:15;23.4;47.6
78536;SHT31;67829;51.968;5.684;2023-06-10T06:39:44;23.4;47.8
78536;SHT31;67829;51.968;5.684;2023-06-10T06:42:13;23.5;47.8
78536;SHT31;67829;51.968;5.684;2023-06-10T06:44:42;23.5;47.5
78536;SHT31;67829;51.968;5.684;2023-06-10T06:47:11;23.6;45.6
78536;SHT31;67829;51.968;5.684;2023-06-10T06:49:41;23.7;46.2
78536;SHT31;67829;51.968;5.684;2023-06-10T06:52:12;23.7;46.4
78536;SHT31;67829;51.968;5.684;2023-06-10T06:54:41;23.8;47.1
78536;SHT31;67829;51.968;5.684;2023-06-10T06:57:10;23.9;46.9
78536;SHT31;67829;51.968;5.684;2023-06-10T06:59:38;23.9;47.2
78536;SHT31;67829;51.968;5.684;2023-06-10T07:02:07;24.0;47.2
78536;SHT31;67829;51.968;5.684;2023-06-10T07:04:36;24.1;46.1
78536;SHT31;67829;51.968;5.684;2023-06-10T07:07:07;24.1;46.3
78536;SHT31;67829;51.968;5.684;2023-06-10T07:09:37;24.2;45.8
78536;SHT31;67829;51.968;5.684;2023-06-10T07:12:06;24.2;46.0
78536;SHT31;67829;51.968;5.684;2023-06-10T07:14:35;24.3;46.3
78536;SHT31;67829;51.968;5.684;2023-06-10T07:17:03;24.3;46.0
78536;SHT31;67829;51.968;5.684;2023-06-10T07:19:32;24.4;46.4
78536;SHT31;67829;51.968;5.684;2023-06-10T07:22:01;24.5;45.8
78536;SHT31;67829;51.968;5.684;2023-06-10T07:24:30;24.5;45.3
78536;SHT31;67829;51.968;5.684;2023-06-10T07:26:58;24.6;46.0
78536;SHT31;67829;51.968;5.684;2023-06-10T07:29:27;24.7;45.8
78536;SHT31;67829;51.968;5.684;2023-06-10T07:31:55;24.7;45.8
78536;SHT31;67829;51.968;5.684;2023-06-10T07:34:24;24.8;45.5
78536;SHT31;67829;51.968;5.684;2023-06-10T07:36:53;24.9;44.9
78536;SHT31;67829;51.968;5.684;2023-06-10T07:39:21;25.0;45.0
78536;SHT31;67829;51.968;5.684;2023-06-10T07:41:50;25.1;45.2
78536;SHT31;67829;51.968;5.684;2023-06-10T07:44:20;25.2;45.5
78536;SHT31;67829;51.968;5.684;2023-06-10T07:46:49;25.2;44.5
78536;SHT31;67829;51.968;5.684;2023-06-10T07:49:17;25.3;44.6
78536;SHT31;67829;51.968;5.684;2023-06-10T07:51:46;25.4;44.6
78536;SHT31;67829;51.968;5.684;2023-06-10T07:54:14;25.5;44.0
78536;SHT31;67829;51.968;5.684;2023-06-10T07:56:45;25.6;43.9
78536;SHT31;67829;51.968;5.684;2023-06-10T07:59:14;25.6;43.9
78536;SHT31;67829;51.968;5.684;2023-06-10T08:01:43;25.7;43.0
78536;SHT31;67829;51.968;5.684;2023-06-10T08:04:11;25.8;42.9
78536;SHT31;67829;51.968;5.684;2023-06-10T08:06:40;25.8;43.3
78536;SHT31;67829;51.968;5.684;2023-06-10T08:09:08;25.9;43.2
78536;SHT31;67829;51.968;5.684;2023-06-10T08:11:37;25.9;43.2
78536;SHT31;67829;51.968;5.684;2023-06-10T08:14:05;26.0;43.0
78536;SHT31;67829;51.968;5.684;2023-06-10T08:16:34;26.1;43.2
78536;SHT31;67829;51.968;5.684;2023-06-10T08:19:03;26.1;42.8
78536;SHT31;67829;51.968;5.684;2023-06-10T08:21:33;26.2;42.5
78536;SHT31;67829;51.968;5.684;2023-06-10T08:24:03;26.3;42.2
78536;SHT31;67829;51.968;5.684;2023-06-10T08:26:31;26.3;42.2
78536;SHT31;67829;51.968;5.684;2023-06-10T08:29:00;26.4;42.1
78536;SHT31;67829;51.968;5.684;2023-06-10T08:31:29;26.5;42.2
78536;SHT31;67829;51.968;5.684;2023-06-10T08:33:59;26.5;41.2
78536;SHT31;67829;51.968;5.684;2023-06-10T08:36:28;26.6;40.9
78536;SHT31;67829;51.968;5.684;2023-06-10T08:38:56;26.6;41.2
78536;SHT31;67829;51.968;5.684;2023-06-10T08:41:27;26.7;41.2
78536;SHT31;67829;51.968;5.684;2023-06-10T08:44:08;26.7;41.1
78536;SHT31;67829;51.968;5.684;2023-06-10T08:46:38;26.8;40.8
78536;SHT31;67829;51.968;5.684;2023-06-10T08:49:10;26.8;41.2
78536;SHT31;67829;51.968;5.684;2023-06-10T08:51:43;26.9;40.3
78536;SHT31;67829;51.968;5.684;2023-06-10T08:54:18;26.9;40.6
78536;SHT31;67829;51.968;5.684;2023-06-10T08:56:50;27.0;40.7
78536;SHT31;67829;51.968;5.684;2023-06-10T08:59:20;27.1;40.3
78536;SHT31;67829;51.968;5.684;2023-06-10T09:01:50;27.1;40.3
78536;SHT31;67829;51.968;5.684;2023-06-10T09:04:19;27.2;39.8
78536;SHT31;67829;51.968;5.684;2023-06-10T09:06:49;27.3;39.7
78536;SHT31;67829;51.968;5.684;2023-06-10T09:09:20;27.3;39.5
78536;SHT31;67829;51.968;5.684;2023-06-10T09:11:53;27.4;39.7
78536;SHT31;67829;51.968;5.684;2023-06-10T09:14:21;27.4;39.6
78536;SHT31;67829;51.968;5.684;2023-06-10T09:16:50;27.5;38.7
78536;SHT31;67829;51.968;5.684;2023-06-10T09:19:23;27.5;38.3
78536;SHT31;67829;51.968;5.684;2023-06-10T09:21:54;27.6;38.8
78536;SHT31;67829;51.968;5.684;2023-06-10T09:24:23;27.6;38.8
78536;SHT31;67829;51.968;5.684;2023-06-10T09:27:03;27.6;38.9
78536;SHT31;67829;51.968;5.684;2023-06-10T09:29:47;27.7;38.5
78536;SHT31;67829;51.968;5.684;2023-06-10T09:32:17;27.7;38.5
78536;SHT31;67829;51.968;5.684;2023-06-10T09:34:47;27.8;38.4
78536;SHT31;67829;51.968;5.684;2023-06-10T09:37:22;27.8;38.5
78536;SHT31;67829;51.968;5.684;2023-06-10T09:40:05;27.9;38.4
78536;SHT31;67829;51.968;5.684;2023-06-10T09:42:38;27.9;38.8
78536;SHT31;67829;51.968;5.684;2023-06-10T09:45:07;28.0;37.7
78536;SHT31;67829;51.968;5.684;2023-06-10T09:47:38;28.0;38.9
78536;SHT31;67829;51.968;5.684;2023-06-10T09:50:10;28.0;39.2
78536;SHT31;67829;51.968;5.684;2023-06-10T09:52:38;28.1;37.9
78536;SHT31;67829;51.968;5.684;2023-06-10T09:55:08;28.2;38.7
78536;SHT31;67829;51.968;5.684;2023-06-10T09:57:38;28.2;38.8
78536;SHT31;67829;51.968;5.684;2023-06-10T10:00:09;28.3;38.8
78536;SHT31;67829;51.968;5.684;2023-06-10T10:02:44;28.4;37.9
78536;SHT31;67829;51.968;5.684;2023-06-10T10:05:15;28.5;38.8
78536;SHT31;67829;51.968;5.684;2023-06-10T10:07:45;28.6;38.3
78536;SHT31;67829;51.968;5.684;2023-06-10T10:10:15;28.6;37.1
78536;SHT31;67829;51.968;5.684;2023-06-10T10:12:48;28.7;37.9
78536;SHT31;67829;51.968;5.684;2023-06-10T10:15:20;28.8;36.7
78536;SHT31;67829;51.968;5.684;2023-06-10T10:17:53;28.9;37.1
78536;SHT31;67829;51.968;5.684;2023-06-10T10:20:27;28.9;36.8
78536;SHT31;67829;51.968;5.684;2023-06-10T10:22:59;29.0;35.5
78536;SHT31;67829;51.968;5.684;2023-06-10T10:25:35;29.1;34.8
78536;SHT31;67829;51.968;5.684;2023-06-10T10:28:08;29.1;34.8
78536;SHT31;67829;51.968;5.684;2023-06-10T10:30:39;29.1;35.2
78536;SHT31;67829;51.968;5.684;2023-06-10T10:33:12;29.2;35.4
78536;SHT31;67829;51.968;5.684;2023-06-10T10:35:43;29.3;34.5
78536;SHT31;67829;51.968;5.684;2023-06-10T10:38:12;29.3;33.9
78536;SHT31;67829;51.968;5.684;2023-06-10T10:40:43;29.4;33.7
78536;SHT31;67829;51.968;5.684;2023-06-10T10:43:15;29.4;33.2
78536;SHT31;67829;51.968;5.684;2023-06-10T10:45:45;29.4;33.4
78536;SHT31;67829;51.968;5.684;2023-06-10T10:48:15;29.5;32.9
78536;SHT31;67829;51.968;5.684;2023-06-10T10:50:43;29.5;33.2
78536;SHT31;67829;51.968;5.684;2023-06-10T10:53:20;29.6;32.0
78536;SHT31;67829;51.968;5.684;2023-06-10T10:55:57;29.6;31.2
78536;SHT31;67829;51.968;5.684;2023-06-10T10:58:26;29.7;31.2
78536;SHT31;67829;51.968;5.684;2023-06-10T11:00:55;29.7;30.7
78536;SHT31;67829;51.968;5.684;2023-06-10T11:03:28;29.7;31.3
78536;SHT31;67829;51.968;5.684;2023-06-10T11:05:58;29.8;30.8
78536;SHT31;67829;51.968;5.684;2023-06-10T11:08:48;29.8;31.2
78536;SHT31;67829;51.968;5.684;2023-06-10T11:11:23;29.9;30.9
78536;SHT31;67829;51.968;5.684;2023-06-10T11:14:08;29.9;29.8
78536;SHT31;67829;51.968;5.684;2023-06-10T11:16:41;29.9;30.4
78536;SHT31;67829;51.968;5.684;2023-06-10T11:19:33;30.0;30.3
78536;SHT31;67829;51.968;5.684;2023-06-10T11:22:05;30.0;30.3
78536;SHT31;67829;51.968;5.684;2023-06-10T11:24:34;30.1;29.7
78536;SHT31;67829;51.968;5.684;2023-06-10T11:27:20;30.1;29.6
78536;SHT31;67829;51.968;5.684;2023-06-10T11:30:00;30.2;29.0
78536;SHT31;67829;51.968;5.684;2023-06-10T11:32:34;30.2;28.8
78536;SHT31;67829;51.968;5.684;2023-06-10T11:35:05;30.2;28.3
78536;SHT31;67829;51.968;5.684;2023-06-10T11:37:36;30.3;28.5
78536;SHT31;67829;51.968;5.684;2023-06-10T11:40:09;30.3;29.7
78536;SHT31;67829;51.968;5.684;2023-06-10T11:42:40;30.4;29.0
78536;SHT31;67829;51.968;5.684;2023-06-10T11:45:15;30.4;29.1
78536;SHT31;67829;51.968;5.684;2023-06-10T11:47:57;30.5;28.9
78536;SHT31;67829;51.968;5.684;2023-06-10T11:50:30;30.5;29.3
78536;SHT31;67829;51.968;5.684;2023-06-10T11:52:59;30.5;29.2
78536;SHT31;67829;51.968;5.684;2023-06-10T11:55:44;30.5;29.3
78536;SHT31;67829;51.968;5.684;2023-06-10T11:58:17;30.6;30.1
78536;SHT31;67829;51.968;5.684;2023-06-10T12:00:48;30.6;28.6
78536;SHT31;67829;51.968;5.684;2023-06-10T12:03:17;30.7;29.2
78536;SHT31;67829;51.968;5.684;2023-06-10T12:05:57;30.7;28.8
78536;SHT31;67829;51.968;5.684;2023-06-10T12:08:27;30.8;29.3
78536;SHT31;67829;51.968;5.684;2023-06-10T12:10:57;30.8;29.1
78536;SHT31;67829;51.968;5.684;2023-06-10T12:13:27;30.8;29.4
78536;SHT31;67829;51.968;5.684;2023-06-10T12:16:08;30.9;28.2
78536;SHT31;67829;51.968;5.684;2023-06-10T12:18:39;30.9;28.0
78536;SHT31;67829;51.968;5.684;2023-06-10T12:21:17;30.9;28.5
78536;SHT31;67829;51.968;5.684;2023-06-10T12:24:02;31.0;28.0
78536;SHT31;67829;51.968;5.684;2023-06-10T12:26:42;31.0;27.8
78536;SHT31;67829;51.968;5.684;2023-06-10T12:29:21;31.0;28.3
78536;SHT31;67829;51.968;5.684;2023-06-10T12:31:55;31.0;28.6
78536;SHT31;67829;51.968;5.684;2023-06-10T12:34:34;31.1;28.2
78536;SHT31;67829;51.968;5.684;2023-06-10T12:37:06;31.1;27.9
78536;SHT31;67829;51.968;5.684;2023-06-10T12:39:35;31.2;28.6
78536;SHT31;67829;51.968;5.684;2023-06-10T12:42:06;31.2;29.0
78536;SHT31;67829;51.968;5.684;2023-06-10T12:44:39;31.2;28.5
78536;SHT31;67829;51.968;5.684;2023-06-10T12:47:11;31.2;28.0
78536;SHT31;67829;51.968;5.684;2023-06-10T12:49:40;31.3;27.8
78536;SHT31;67829;51.968;5.684;2023-06-10T12:52:09;31.3;29.0
78536;SHT31;67829;51.968;5.684;2023-06-10T12:54:39;31.3;28.1
78536;SHT31;67829;51.968;5.684;2023-06-10T12:57:09;31.4;27.4
78536;SHT31;67829;51.968;5.684;2023-06-10T12:59:38;31.4;27.6
78536;SHT31;67829;51.968;5.684;2023-06-10T13:02:07;31.4;27.1
78536;SHT31;67829;51.968;5.684;2023-06-10T13:04:37;31.5;27.6
78536;SHT31;67829;51.968;5.684;2023-06-10T13:07:05;31.5;28.1
78536;SHT31;67829;51.968;5.684;2023-06-10T13:09:34;31.5;29.2
78536;SHT31;67829;51.968;5.684;2023-06-10T13:12:03;31.6;27.6
78536;SHT31;67829;51.968;5.684;2023-06-10T13:14:31;31.6;27.6
78536;SHT31;67829;51.968;5.684;2023-06-10T13:17:01;31.7;27.3
78536;SHT31;67829;51.968;5.684;2023-06-10T13:19:29;31.7;26.9
78536;SHT31;67829;51.968;5.684;2023-06-10T13:21:58;31.8;26.5
78536;SHT31;67829;51.968;5.684;2023-06-10T13:24:27;31.8;26.6
78536;SHT31;67829;51.968;5.684;2023-06-10T13:26:56;31.9;26.6
78536;SHT31;67829;51.968;5.684;2023-06-10T13:29:24;31.9;26.3
78536;SHT31;67829;51.968;5.684;2023-06-10T13:31:53;31.9;27.9
78536;SHT31;67829;51.968;5.684;2023-06-10T13:34:21;32.0;26.9
78536;SHT31;67829;51.968;5.684;2023-06-10T13:36:50;32.0;26.9
78536;SHT31;67829;51.968;5.684;2023-06-10T13:39:18;32.0;27.1
78536;SHT31;67829;51.968;5.684;2023-06-10T13:41:49;32.1;25.8
78536;SHT31;67829;51.968;5.684;2023-06-10T13:44:18;32.1;27.2
78536;SHT31;67829;51.968;5.684;2023-06-10T13:46:47;32.2;26.6
78536;SHT31;67829;51.968;5.684;2023-06-10T13:49:15;32.2;26.4
78536;SHT31;67829;51.968;5.684;2023-06-10T13:51:44;32.3;26.7
78536;SHT31;67829;51.968;5.684;2023-06-10T13:54:13;32.3;26.5
78536;SHT31;67829;51.968;5.684;2023-06-10T13:56:42;32.4;26.3
78536;SHT31;67829;51.968;5.684;2023-06-10T13:59:11;32.4;26.1
78536;SHT31;67829;51.968;5.684;2023-06-10T14:01:39;32.5;25.7
78536;SHT31;67829;51.968;5.684;2023-06-10T14:04:08;32.5;25.6
78536;SHT31;67829;51.968;5.684;2023-06-10T14:06:37;32.5;25.2
78536;SHT31;67829;51.968;5.684;2023-06-10T14:09:05;32.5;26.2
78536;SHT31;67829;51.968;5.684;2023-06-10T14:11:34;32.6;24.7
78536;SHT31;67829;51.968;5.684;2023-06-10T14:14:03;32.6;25.0
78536;SHT31;67829;51.968;5.684;2023-06-10T14:16:31;32.6;25.5
78536;SHT31;67829;51.968;5.684;2023-06-10T14:19:00;32.6;25.3
78536;SHT31;67829;51.968;5.684;2023-06-10T14:21:29;32.6;25.1
78536;SHT31;67829;51.968;5.684;2023-06-10T14:23:57;32.6;24.7
78536;SHT31;67829;51.968;5.684;2023-06-10T14:26:26;32.6;24.7
78536;SHT31;67829;51.968;5.684;2023-06-10T14:28:54;32.7;25.3
78536;SHT31;67829;51.968;5.684;2023-06-10T14:31:23;32.7;24.8
78536;SHT31;67829;51.968;5.684;2023-06-10T14:33:53;32.7;25.0
78536;SHT31;67829;51.968;5.684;2023-06-10T14:36:22;32.7;23.7
78536;SHT31;67829;51.968;5.684;2023-06-10T14:38:50;32.7;25.0
78536;SHT31;67829;51.968;5.684;2023-06-10T14:41:20;32.7;24.4
78536;SHT31;67829;51.968;5.684;2023-06-10T14:43:48;32.7;25.0
78536;SHT31;67829;51.968;5.684;2023-06-10T14:46:17;32.7;24.9
78536;SHT31;67829;51.968;5.684;2023-06-10T14:48:47;32.7;25.5
78536;SHT31;67829;51.968;5.684;2023-06-10T14:51:16;32.7;24.3
78536;SHT31;67829;51.968;5.684;2023-06-10T14:53:46;32.7;25.5
78536;SHT31;67829;51.968;5.684;2023-06-10T14:56:15;32.6;26.5
78536;SHT31;67829;51.968;5.684;2023-06-10T14:58:43;32.6;26.7
78536;SHT31;67829;51.968;5.684;2023-06-10T15:01:12;32.6;26.4
78536;SHT31;67829;51.968;5.684;2023-06-10T15:03:41;32.6;25.6
78536;SHT31;67829;51.968;5.684;2023-06-10T15:06:09;32.6;26.7
78536;SHT31;67829;51.968;5.684;2023-06-10T15:08:38;32.6;26.3
78536;SHT31;67829;51.968;5.684;2023-06-10T15:11:08;32.6;26.1
78536;SHT31;67829;51.968;5.684;2023-06-10T15:13:39;32.6;25.8
78536;SHT31;67829;51.968;5.684;2023-06-10T15:16:07;32.6;25.8
78536;SHT31;67829;51.968;5.684;2023-06-10T15:18:36;32.5;25.4
78536;SHT31;67829;51.968;5.684;2023-06-10T15:21:05;32.5;25.8
78536;SHT31;67829;51.968;5.684;2023-06-10T15:23:33;32.5;25.6
78536;SHT31;67829;51.968;5.684;2023-06-10T15:26:02;32.5;26.0
78536;SHT31;67829;51.968;5.684;2023-06-10T15:28:31;32.6;26.0
78536;SHT31;67829;51.968;5.684;2023-06-10T15:30:59;32.6;25.8
78536;SHT31;67829;51.968;5.684;2023-06-10T15:33:28;32.6;26.1
78536;SHT31;67829;51.968;5.684;2023-06-10T15:35:56;32.7;26.3
78536;SHT31;67829;51.968;5.684;2023-06-10T15:38:25;32.9;26.1
78536;SHT31;67829;51.968;5.684;2023-06-10T15:40:54;33.1;25.5
78536;SHT31;67829;51.968;5.684;2023-06-10T15:43:22;33.3;26.1
78536;SHT31;67829;51.968;5.684;2023-06-10T15:45:51;33.5;24.8
78536;SHT31;67829;51.968;5.684;2023-06-10T15:48:19;33.8;24.7
78536;SHT31;67829;51.968;5.684;2023-06-10T15:50:48;34.0;25.0
78536;SHT31;67829;51.968;5.684;2023-06-10T15:53:16;34.3;24.2
78536;SHT31;67829;51.968;5.684;2023-06-10T15:55:45;34.4;24.3
78536;SHT31;67829;51.968;5.684;2023-06-10T15:58:14;34.6;23.5
78536;SHT31;67829;51.968;5.684;2023-06-10T16:00:42;34.6;23.1
78536;SHT31;67829;51.968;5.684;2023-06-10T16:03:11;34.7;23.6
78536;SHT31;67829;51.968;5.684;2023-06-10T16:05:42;34.7;24.0
78536;SHT31;67829;51.968;5.684;2023-06-10T16:08:10;34.7;24.3
78536;SHT31;67829;51.968;5.684;2023-06-10T16:10:39;34.6;24.2
78536;SHT31;67829;51.968;5.684;2023-06-10T16:13:08;34.6;24.8
78536;SHT31;67829;51.968;5.684;2023-06-10T16:15:36;34.6;24.1
78536;SHT31;67829;51.968;5.684;2023-06-10T16:18:05;34.6;23.4
78536;SHT31;67829;51.968;5.684;2023-06-10T16:20:33;34.6;23.9